Latest Weather Observations for Mount Baw Baw

IDV60801

Issued at 10:35 pm EDT Tuesday 21 October 2014 (issued every 30 minutes, with the page automatically refreshed every 10 minutes)

About weather observations | Map of weather stations | Latest weather observations for VIC | Other Formats
Station Details ID: 085291 Name: MOUNT BAW BAW Lat: -37.84 Lon: 146.27 Height: 1561.0 m
Data from the previous 72 hours. | See also: Recent months at Mount Baw Baw
Date/Time
EDT
Temp
°C
App
Temp
°C
Dew
Point
Rel
Hum
%
Delta-T
°C
Wind Press
QNH
hPa
Press
MSL
hPa
Rain
since 9 am
mm
Dir
 
Spd
km/h
Gust
km/h
Spd
kts
Gust
kts
21/10:30pm 10.7 7.4 4.8 67 2.9 N 11 17 - 9 - - 0.0
21/10:00pm 10.8 7.7 3.8 62 3.4 NNE 9 15 - 8 - - 0.0
21/09:30pm 11.1 7.8 4.3 63 3.3 N 11 15 - 8 - - 0.0
21/09:00pm 11.2 8.0 4.9 65 3.1 N 11 17 - 9 - - 0.0
21/08:30pm 11.6 9.0 6.3 70 2.7 NNW 9 15 - 8 - - 0.0
21/08:00pm 11.8 9.6 7.7 76 2.2 NNE 9 15 - 8 - - 0.0
21/07:30pm 12.5 10.1 7.0 69 2.9 N 9 15 - 8 - - 0.0
21/07:00pm 13.4 11.0 7.2 66 3.3 N 9 17 - 9 - - 0.0
21/06:30pm 14.4 12.6 7.2 62 3.8 N 6 11 - 6 - - 0.0
21/06:00pm 15.6 14.0 8.8 64 3.8 NNW 7 15 - 8 - - 0.0
21/05:30pm 16.1 14.6 8.6 61 4.2 WNW 6 9 - 5 - - 0.0
21/05:00pm 16.2 14.4 7.9 58 4.5 W 7 13 - 7 - - 0.0
21/04:30pm 15.9 14.3 8.6 62 4.0 W 7 13 - 7 - - 0.0
21/04:00pm 16.4 14.9 9.3 63 4.0 SSW 7 13 - 7 - - 0.0
21/03:30pm 16.2 14.3 8.9 62 4.1 WSW 9 13 - 7 - - 0.0
21/03:00pm 16.1 14.6 10.6 70 3.2 SSW 9 15 - 8 - - 0.0
21/02:30pm 15.0 13.8 9.4 69 3.1 SSW 6 9 - 5 - - 0.0
21/02:00pm 16.4 15.1 9.8 65 3.7 S 7 13 - 7 - - 0.0
21/01:30pm 15.7 14.3 8.7 63 3.9 S 6 11 - 6 - - 0.0
21/01:00pm 15.2 13.8 8.9 66 3.5 SSE 6 7 - 4 - - 0.0
21/12:30pm 15.1 14.0 8.3 64 3.7 SE 4 7 - 4 - - 0.0
21/12:00pm 14.4 12.7 8.4 67 3.3 SSW 7 13 - 7 - - 0.0
21/11:30am 14.8 13.2 8.7 67 3.4 S 7 11 - 6 - - 0.0
21/11:00am 15.5 13.6 6.8 56 4.6 SSW 6 11 - 6 - - 0.0
21/10:30am 15.3 12.9 4.1 47 5.7 SSW 6 9 - 5 - - 0.0
21/10:00am 13.9 11.2 2.8 47 5.4 N 6 9 - 5 - - 0.0
21/09:30am 12.2 9.2 1.8 49 4.9 WNW 7 11 - 6 - - 0.0
21/09:00am 11.1 8.5 3.4 59 3.7 NW 6 9 - 5 - - 0.0
21/08:30am 10.2 7.7 3.7 64 3.1 N 6 9 - 5 - - 0.0
21/08:00am 9.7 7.0 3.9 67 2.8 N 7 11 - 6 - - 0.0
21/07:30am 9.3 5.8 1.0 56 3.7 N 9 13 - 7 - - 0.0
21/07:00am 8.3 5.2 3.4 71 2.3 N 9 13 - 7 - - 0.0
21/06:30am 7.6 4.6 4.2 79 1.6 N 9 15 - 8 - - 0.0
21/06:00am 7.5 4.6 4.5 81 1.4 NNE 9 15 - 8 - - 0.0
21/05:30am 7.6 4.4 3.3 74 2.0 NNE 9 15 - 8 - - 0.0
21/05:00am 8.3 5.0 2.5 67 2.7 N 9 17 - 9 - - 0.0
21/04:30am 8.7 5.3 1.8 62 3.2 NNE 9 15 - 8 - - 0.0
21/04:00am 9.1 5.3 -0.8 50 4.3 NE 9 17 - 9 - - 0.0
21/03:30am 9.5 5.5 -5.9 33 5.9 NNE 7 11 - 6 - - 0.0
21/03:00am 11.0 5.8 -32.5 3 9.6 NE 7 9 - 5 - - 0.0
21/02:30am 10.7 5.1 -32.7 3 9.5 NE 9 13 - 7 - - 0.0
21/02:00am 10.6 5.1 -29.8 4 9.3 NE 9 15 - 8 - - 0.0
21/01:30am 9.4 3.9 -26.3 6 8.6 NE 9 15 - 8 - - 0.0
21/01:00am 8.6 2.8 -23.8 8 8.2 NE 11 20 - 11 - - 0.0
21/12:30am 7.8 2.2 -18.9 13 7.4 NE 11 20 - 11 - - 0.0
21/12:00am 7.4 1.5 -16.7 16 7.0 NE 13 20 - 11 - - 0.0
 
Date/Time
EDT
Temp
°C
App
Temp
°C
Dew
Point
Rel
Hum
%
Delta-T
°C
Wind Press
QNH
hPa
Press
MSL
hPa
Rain
since 9 am
mm
Dir
 
Spd
km/h
Gust
km/h
Spd
kts
Gust
kts
20/11:30pm 6.8 1.1 -12.8 23 6.2 NE 13 22 - 12 - - 0.0
20/11:00pm 6.4 0.7 -12.2 25 5.9 NE 13 19 - 10 - - 0.0
20/10:30pm 5.3 0.4 -6.9 41 4.4 NE 11 19 - 10 - - 0.0
20/10:00pm 5.8 1.2 -7.4 38 4.7 NE 9 15 - 8 - - 0.0
20/09:30pm 4.9 0.6 -1.3 64 2.5 NE 11 17 - 9 - - 0.0
20/09:00pm 3.8 0.0 2.0 88 0.8 NE 11 17 - 9 - - 0.0
20/08:30pm 2.6 -1.7 1.0 89 0.7 NE 13 19 - 10 - - 0.0
20/08:00pm 3.2 -1.2 0.4 82 1.2 ENE 13 20 - 11 - - 0.0
20/07:30pm 3.5 -1.0 -0.5 75 1.6 ENE 13 20 - 11 - - 0.0
20/07:00pm 3.6 -0.3 1.0 83 1.1 ENE 11 15 - 8 - - 0.0
20/06:30pm 3.5 -0.5 2.6 94 0.4 ENE 13 22 - 12 - - 0.0
20/06:00pm 3.7 -0.6 3.0 95 0.3 ENE 15 24 - 13 - - 0.0
20/05:30pm 5.2 0.8 2.6 83 1.2 ENE 15 20 - 11 - - 0.0
20/05:00pm 6.2 2.1 2.1 75 1.8 ENE 13 20 - 11 - - 0.0
20/04:30pm 6.6 2.3 1.1 68 2.4 ENE 13 20 - 11 - - 0.0
20/04:00pm 7.5 2.8 0.7 62 3.0 NE 15 20 - 11 - - 0.0
20/03:30pm 7.6 3.3 0.8 62 3.0 NNE 13 20 - 11 - - 0.0
20/03:00pm 8.5 4.6 1.4 61 3.2 NE 11 17 - 9 - - 0.0
20/02:30pm 10.5 7.0 1.3 53 4.2 NE 9 15 - 8 - - 0.0
20/02:00pm 11.7 7.9 -0.4 43 5.4 NE 9 13 - 7 - - 0.0
20/01:30pm 11.8 7.3 -3.1 35 6.3 ENE 11 17 - 9 - - 0.0
20/01:00pm 13.0 8.6 -2.5 34 6.7 ENE 11 19 - 10 - - 0.0
20/12:30pm 13.8 9.0 -5.9 25 7.9 NE 11 19 - 10 - - 0.0
20/12:00pm 12.8 8.2 -4.3 30 7.1 ENE 11 19 - 10 - - 0.0
20/11:30am 8.9 4.2 -5.0 37 5.4 NE 11 17 - 9 - - 0.0
20/11:00am 9.0 4.3 -4.9 37 5.4 ENE 11 17 - 9 - - 0.0
20/10:30am 9.2 4.1 -9.3 26 6.6 ENE 11 13 - 7 - - 0.0
20/10:00am 8.2 2.9 -7.1 33 5.6 ENE 13 19 - 10 - - 0.0
20/09:30am 5.8 0.6 -5.8 43 4.3 ENE 13 19 - 10 - - 0.0
20/09:00am 4.9 0.2 -5.4 47 3.8 ENE 11 19 - 10 - - 1.0
20/08:30am 5.0 0.2 -5.6 46 3.9 E 11 15 - 8 - - 1.0
20/08:00am 4.7 0.1 -12.7 27 5.6 E 7 11 - 6 - - 1.0
20/07:30am 2.0 -2.7 -5.2 59 2.7 NE 11 13 - 7 - - 1.0
20/07:00am 0.2 -4.3 -3.3 77 1.3 ENE 11 17 - 9 - - 1.0
20/06:30am 0.7 -4.4 -8.8 49 3.1 E 11 15 - 8 - - 1.0
20/06:00am 1.4 -3.9 -12.0 36 4.1 E 11 15 - 8 - - 1.0
20/05:30am 0.0 -4.9 -7.3 58 2.4 E 11 13 - 7 - - 1.0
20/05:00am 0.0 -4.1 -3.4 78 1.3 SE 9 13 - 7 - - 1.0
20/04:30am -0.3 -4.1 -0.4 99 0.0 SSE 9 11 - 6 - - 1.0
20/04:00am 0.1 -3.6 0.0 99 0.0 SE 9 17 - 9 - - 1.0
20/03:30am 1.0 -2.9 0.9 99 0.0 S 11 19 - 10 - - 1.0
20/03:00am 1.1 -3.6 1.0 99 0.0 SSW 15 20 - 11 - - 1.0
20/02:30am 1.3 -3.7 1.2 99 0.0 SSW 17 22 - 12 - - 0.8
20/02:00am 1.8 -3.1 1.7 99 0.0 SSW 17 26 - 14 - - 0.8
20/01:30am 2.4 -3.0 2.3 99 0.0 SW 20 28 - 15 - - 0.6
20/01:00am 3.0 -2.3 2.9 99 0.0 SW 20 30 - 16 - - 0.4
20/12:30am 3.7 -1.5 3.6 99 0.0 WSW 20 30 - 16 - - 0.2
20/12:00am 3.9 -2.4 3.8 99 0.0 SW 26 35 - 19 - - 0.0
 
Date/Time
EDT
Temp
°C
App
Temp
°C
Dew
Point
Rel
Hum
%
Delta-T
°C
Wind Press
QNH
hPa
Press
MSL
hPa
Rain
since 9 am
mm
Dir
 
Spd
km/h
Gust
km/h
Spd
kts
Gust
kts
19/11:30pm 4.3 -0.8 4.2 99 0.0 SW 20 30 - 16 - - 0.0
19/11:00pm 4.4 -0.7 4.3 99 0.0 SW 20 30 - 16 - - 0.0
19/10:30pm 4.9 0.5 4.8 99 0.0 SW 17 28 - 15 - - 0.0
19/10:00pm 5.4 2.2 5.3 99 0.0 W 11 17 - 9 - - 0.0
19/09:30pm 6.2 2.8 6.1 99 0.0 NNW 13 19 - 10 - - 0.0
19/09:00pm 6.4 3.1 6.3 99 0.0 W 13 24 - 13 - - 0.0
19/08:30pm 6.7 3.4 6.6 99 0.1 W 13 19 - 10 - - 0.0
19/08:00pm 6.1 2.7 6.0 99 0.0 WSW 13 20 - 11 - - 0.0
19/07:30pm 8.0 6.0 6.9 93 0.6 W 7 15 - 8 - - 0.0
19/07:00pm 11.1 8.3 5.0 66 3.0 W 9 15 - 8 - - 0.0
19/06:30pm 13.1 8.1 1.5 45 5.5 W 17 33 - 18 - - 0.0
19/06:00pm 13.7 9.0 0.7 41 6.0 WNW 15 32 - 17 - - 0.0
19/05:30pm 15.5 9.9 -0.3 34 7.3 W 19 43 - 23 - - 0.0
19/05:00pm 15.3 9.5 -0.1 35 7.1 WNW 20 37 - 20 - - 0.0
19/04:50pm 15.4 7.9 -1.2 32 7.5 WNW 28 46 - 25 - - 0.0
19/04:30pm 15.8 10.7 0.8 36 7.1 W 17 33 - 18 - - 0.0
19/04:00pm 15.2 9.5 -0.9 33 7.3 NNW 19 33 - 18 - - 0.0
19/03:30pm 15.1 9.5 0.2 36 6.9 NW 19 35 - 19 - - 0.0
19/03:00pm 14.0 9.1 -0.4 37 6.6 WNW 15 30 - 16 - - 0.0
19/02:30pm 14.1 8.7 -1.5 34 6.9 NNW 17 39 - 21 - - 0.0
19/02:00pm 14.6 9.1 -1.9 32 7.3 NNW 17 35 - 19 - - 0.0
19/01:30pm 14.1 8.6 -1.9 33 7.1 NNW 17 32 - 17 - - 0.0
19/01:00pm 14.9 9.2 -0.8 34 7.1 NNW 19 32 - 17 - - 0.0
19/12:30pm 14.5 10.1 0.4 38 6.6 N 13 24 - 13 - - 0.0
19/12:00pm 14.3 8.5 -1.3 34 7.0 WNW 19 32 - 17 - - 0.0
19/11:30am 15.0 10.1 -0.3 35 7.0 NNW 15 32 - 17 - - 0.0
19/11:00am 13.9 8.6 -0.5 37 6.5 NNW 17 35 - 19 - - 0.0
19/10:30am 12.9 7.1 -1.4 37 6.3 NNW 19 35 - 19 - - 0.0
19/10:00am 12.4 6.8 -2.6 35 6.4 NNW 17 32 - 17 - - 0.0
19/09:30am 12.1 6.5 -2.9 35 6.4 NNW 17 33 - 18 - - 0.0
19/09:00am 11.0 5.4 -3.1 37 5.9 NNW 17 33 - 18 - - 0.0
19/08:30am 10.5 4.7 -4.3 35 6.0 NW 17 32 - 17 - - 0.0
19/08:00am 9.7 3.7 -2.9 41 5.2 NNW 19 32 - 17 - - 0.0
19/07:30am 10.1 4.0 -3.6 38 5.6 NNW 19 37 - 20 - - 0.0
19/07:00am 10.5 4.8 -3.6 37 5.8 NNW 17 28 - 15 - - 0.0
19/06:30am 10.6 4.9 -3.8 36 5.9 NNW 17 32 - 17 - - 0.0
19/06:00am 10.7 5.0 -3.7 36 5.9 NW 17 28 - 15 - - 0.0
19/05:30am 10.5 5.2 -3.6 37 5.8 NNW 15 33 - 18 - - 0.0
19/05:00am 10.5 4.9 -3.2 38 5.7 NW 17 26 - 14 - - 0.0
19/04:30am 10.1 4.8 -3.6 38 5.6 NNW 15 26 - 14 - - 0.0
19/04:00am 10.3 5.4 -3.4 38 5.6 NNW 13 24 - 13 - - 0.0
19/03:30am 9.7 4.8 -3.2 40 5.3 NNW 13 22 - 12 - - 0.0
19/03:00am 9.7 4.9 -2.6 42 5.1 NNW 13 22 - 12 - - 0.0
19/02:30am 9.7 4.9 -2.6 42 5.1 NNW 13 22 - 12 - - 0.0
19/02:00am 9.6 4.5 -2.3 43 5.0 NNW 15 26 - 14 - - 0.0
19/01:30am 9.4 4.0 -1.6 46 4.7 WNW 17 33 - 18 - - 0.0
19/01:00am 9.6 4.4 -2.7 42 5.1 NNW 15 26 - 14 - - 0.0
19/12:30am 9.5 3.8 -3.4 40 5.3 NNW 17 30 - 16 - - 0.0
19/12:00am 9.9 3.4 -7.7 28 6.5 N 19 43 - 23 - - 0.0
 
Date/Time
EDT
Temp
°C
App
Temp
°C
Dew
Point
Rel
Hum
%
Delta-T
°C
Wind Press
QNH
hPa
Press
MSL
hPa
Rain
since 9 am
mm
Dir
 
Spd
km/h
Gust
km/h
Spd
kts
Gust
kts
18/11:30pm 9.3 3.1 -9.2 26 6.6 N 17 32 - 17 - - 0.0
18/11:00pm 8.9 3.8 -5.3 36 5.5 N 13 28 - 15 - - 0.0

Other Formats:

Comma delimited format used in spreadsheet applications
http://www.bom.gov.au/fwo/IDV60801/IDV60801.95901.axf

JavaScript Object Notation format (JSON) in row-major order
http://www.bom.gov.au/fwo/IDV60801/IDV60801.95901.json